Richmondville, NY (12149)

5:03 AM EST on February 13, 2016 (GMT -0500)
Cobleskill Richmondville | | Change Station
CLOSE
Current Station
Personal Weather Station
Location: Richmondville, NY
Elevation: 965 ft
Nearby Weather Stations
Active Advisory: Wind Chill Warning Active Notice: Local Storm Report

Elev 965 ft 42.65 °N, 74.53 °W | Updated 9 seconds ago

Partly Cloudy
Partly Cloudy
15.0 °F
Feels Like 15 °F
N
0.0
Wind Variable Wind from WSW
Gusts 0.0 mph

Today
High -- | Low -- °F
--% Chance of Precip.
Yesterday
High -- | Low -- °F
Precip. -- in
Pressure 29.86 in
Visibility 10.0 miles
Clouds Few 2900 ft
Windchill 15 °F
Dew Point 10 °F
Humidity 83%
Rainfall 0.00 in
Snow Depth Not available.
6:58 AM 5:26 PM
Waxing Crescent, 29% visible
METAR KALB 130951Z 29010KT 10SM FEW029 M08/M14 A2985 RMK AO2 SLP111 T10781139
Pressure 29.86 in
Visibility 10.0 miles
Clouds Few 2900 ft
Windchill 15 °F
Dew Point 10 °F
Humidity 83%
Rainfall 0.00 in
Snow Depth Not available.
6:58 AM 5:26 PM
Waxing Crescent, 29% visible
METAR KALB 130951Z 29010KT 10SM FEW029 M08/M14 A2985 RMK AO2 SLP111 T10781139

10-Day Weather Forecast

Almanac

Astronomy

Feb. 13, 2016 Rise Set
Actual Time
Civil Twilight
Nautical Twilight
Astronomical Twilight
Moon
Length of Visible Light
Length of Day
Tomorrow will be .
, % of the Moon is Illuminated

Today's Extremes

State Highs State Lows

Community

WunderPhotos

Upload Photos

1,892,536 photos uploaded!

WunderBlog® & News

Nearby

Air Quality

  Air Quality AQ Index Pollutant
Not available.

Snow Depth

Station Depth Elevation

Earthquake Activity

City Distance Mag. Time & Date
Minimum magnitude displayed is 2.5.

Coastal Water Temperatures

Place Temperature

Stations

Nearby Weather Stations

Station Location Temp. Windchill Dew Point Humidity Wind Precip. Elev Updated Type
                   

Watches & Warnings

Wind Chill Warning
Issued: 4:50 AM EST Feb. 13, 2016 – National Weather Service

... Wind chill warning remains in effect until 1 PM EST Sunday...

* locations... western and southern Adirondacks... Schoharie
valley... eastern Catskills... western Mohawk Valley...
helderbergs and southern Vermont.

* Hazard types... dangerous to potentially life threatening wind
chills.

* Wind chill readings... 30 to 50 below zero at times.

* Timing... through early Sunday afternoon.

* Impacts... wind chills will reach dangerous to potentially life
threatening levels. Frigid temperatures have the potential to
result in frozen pipes... frostbite and hypothermia in a short
amount of time.

* Winds... northwest 15 to 25 mph with gusts up to 45 mph.

* Temperatures... 15 below zero to 30 below zero by late tonight.

Precautionary/preparedness actions...

A wind chill warning means the combination of very cold air and
strong winds will create dangerously low wind chill values. This
will result in frost bite and lead to hypothermia or death if
precautions are not taken.